Time;durP1;ratioP1;P1;durP2;ratioP2;P2;SDS_P1;SDS_P2;PMS_P1;PMS_P2;Temp;Humidity;BMP_temperature;BMP_pressure;BME280_temperature;BME280_humidity;BME280_pressure;Samples;Min_cycle;Max_cycle;Signal;HPM_P1;HPM_P2
2021/12/15 00:01:33;;;;;;;56.15;26.50;;;9.70;99.90;;;;;;4913407;29;20098;-65
2021/12/15 00:03:59;;;;;;;64.90;26.08;;;9.70;99.90;;;;;;4926207;28;20047;-65
2021/12/15 00:06:25;;;;;;;63.53;27.35;;;9.60;99.90;;;;;;4912730;29;20062;-64
2021/12/15 00:08:54;;;;;;;64.90;26.33;;;9.60;99.90;;;;;;4925242;29;20043;-64
2021/12/15 00:11:22;;;;;;;58.35;26.17;;;9.70;99.90;;;;;;4934341;29;20047;-64
2021/12/15 00:13:50;;;;;;;62.60;25.75;;;9.70;99.90;;;;;;4930731;28;20494;-64
2021/12/15 00:16:17;;;;;;;68.60;27.27;;;9.70;99.90;;;;;;4917356;29;20047;-64
2021/12/15 00:18:44;;;;;;;64.03;26.38;;;9.70;99.90;;;;;;4927432;29;20043;-64
2021/12/15 00:21:14;;;;;;;64.35;26.20;;;9.70;99.90;;;;;;4933061;29;20110;-64
2021/12/15 00:23:41;;;;;;;64.10;27.25;;;9.70;99.90;;;;;;4928507;29;20414;-64
2021/12/15 00:26:07;;;;;;;60.83;26.27;;;9.70;99.90;;;;;;4929039;29;20489;-64
2021/12/15 00:28:33;;;;;;;61.22;26.73;;;9.70;99.90;;;;;;4933248;29;20443;-65
2021/12/15 00:31:00;;;;;;;61.88;26.60;;;9.70;99.90;;;;;;4926560;28;20051;-65
2021/12/15 00:33:26;;;;;;;63.30;26.92;;;9.70;99.90;;;;;;4917569;28;20383;-65
2021/12/15 00:35:54;;;;;;;65.70;26.38;;;9.60;99.90;;;;;;4932066;28;20057;-64
2021/12/15 00:38:20;;;;;;;68.95;27.50;;;9.70;99.90;;;;;;4902874;28;20054;-64
2021/12/15 00:40:45;;;;;;;61.03;25.73;;;9.70;99.90;;;;;;4926078;28;20131;-64
2021/12/15 00:43:11;;;;;;;64.35;27.30;;;9.70;99.90;;;;;;4927231;28;20051;-65
2021/12/15 00:45:37;;;;;;;68.55;26.35;;;9.70;99.90;;;;;;4910136;28;20078;-64
2021/12/15 00:48:03;;;;;;;71.70;26.50;;;9.70;99.90;;;;;;4917024;28;20474;-64
2021/12/15 00:50:33;;;;;;;72.50;27.20;;;9.70;99.90;;;;;;4908649;28;20054;-64
2021/12/15 00:52:59;;;;;;;64.95;27.35;;;9.70;99.90;;;;;;4931106;28;20110;-65
2021/12/15 00:55:27;;;;;;;61.78;26.15;;;9.70;99.90;;;;;;4928955;28;20059;-65
2021/12/15 00:57:53;;;;;;;70.22;27.05;;;9.70;99.90;;;;;;4945169;28;20133;-65
2021/12/15 01:00:23;;;;;;;58.55;25.90;;;9.70;99.90;;;;;;4925049;28;20545;-65
2021/12/15 01:02:50;;;;;;;58.65;24.92;;;9.70;99.90;;;;;;4926818;28;20494;-64
2021/12/15 01:05:18;;;;;;;61.38;25.55;;;9.70;99.90;;;;;;4947265;28;20047;-64
2021/12/15 01:07:44;;;;;;;69.38;25.83;;;9.70;99.90;;;;;;4947098;28;20051;-64
2021/12/15 01:10:14;;;;;;;55.63;25.55;;;9.70;99.90;;;;;;4932412;28;20073;-65
2021/12/15 01:20:39;;;;;;;66.20;25.33;;;9.70;99.90;;;;;;4927597;29;20054;-64
2021/12/15 01:23:11;;;;;;;62.65;24.48;;;9.70;99.90;;;;;;4930334;29;20047;-65
2021/12/15 01:25:44;;;;;;;50.47;24.95;;;9.70;99.90;;;;;;4909834;29;20142;-65
2021/12/15 01:28:11;;;;;;;56.67;24.40;;;9.70;99.90;;;;;;4921918;28;20137;-64
2021/12/15 01:30:40;;;;;;;57.15;24.23;;;9.70;99.90;;;;;;4931225;28;20050;-65
2021/12/15 01:33:07;;;;;;;60.67;25.70;;;9.70;99.90;;;;;;4915780;28;20055;-64
2021/12/15 01:35:35;;;;;;;66.82;24.35;;;9.70;99.90;;;;;;4931432;28;20841;-64
2021/12/15 01:38:01;;;;;;;58.95;23.63;;;9.70;99.90;;;;;;4926287;28;20039;-64
2021/12/15 01:40:37;;;;;;;53.65;23.63;;;9.70;99.90;;;;;;4926818;28;20130;-65
2021/12/15 01:43:18;;;;;;;57.75;24.05;;;9.80;99.90;;;;;;4946483;28;20083;-65
2021/12/15 01:48:34;;;;;;;60.58;26.27;;;9.70;99.90;;;;;;4941659;28;20051;-64
2021/12/15 01:51:00;;;;;;;60.95;25.38;;;9.70;99.90;;;;;;4911370;29;20059;-64
2021/12/15 01:53:26;;;;;;;60.40;25.70;;;9.70;99.90;;;;;;4902652;29;20380;-65
2021/12/15 01:55:53;;;;;;;61.67;26.73;;;9.80;99.90;;;;;;4907946;29;20051;-65
2021/12/15 01:58:19;;;;;;;54.03;25.50;;;9.80;99.90;;;;;;4907225;29;20468;-64
2021/12/15 02:00:57;;;;;;;64.20;27.35;;;9.80;99.90;;;;;;4907122;29;20107;-65
2021/12/15 02:03:23;;;;;;;63.53;27.65;;;9.70;99.90;;;;;;4903186;29;20054;-65
2021/12/15 02:05:49;;;;;;;59.95;27.70;;;9.80;99.90;;;;;;4906869;29;20052;-64
2021/12/15 02:08:15;;;;;;;61.17;27.88;;;9.80;99.90;;;;;;4922557;29;20829;-64
2021/12/15 02:10:43;;;;;;;64.75;28.23;;;9.80;99.90;;;;;;4929100;29;20095;-65
2021/12/15 02:13:13;;;;;;;60.28;28.90;;;9.80;99.90;;;;;;4907858;29;20110;-65
2021/12/15 02:15:42;;;;;;;64.32;28.88;;;9.80;99.90;;;;;;4909016;29;20059;-64
2021/12/15 02:18:13;;;;;;;61.22;27.80;;;9.80;99.90;;;;;;4910019;29;20499;-65
2021/12/15 02:21:05;;;;;;;62.72;28.90;;;9.80;99.90;;;;;;4906452;29;20051;-64
2021/12/15 02:23:40;;;;;;;58.95;28.20;;;9.80;99.90;;;;;;4940886;28;20051;-64
2021/12/15 02:26:20;;;;;;;62.85;28.90;;;9.80;99.90;;;;;;4926678;29;20036;-65
2021/12/15 02:28:49;;;;;;;69.82;28.98;;;9.80;99.90;;;;;;4894402;29;20040;-65
2021/12/15 02:31:32;;;;;;;67.10;29.08;;;9.80;99.90;;;;;;4926819;29;20134;-65
2021/12/15 02:34:20;;;;;;;70.13;29.38;;;9.80;99.90;;;;;;4917238;29;20509;-64
2021/12/15 02:39:32;;;;;;;57.75;28.70;;;9.80;99.90;;;;;;4912153;29;20158;-64
2021/12/15 02:41:59;;;;;;;74.90;30.15;;;9.80;99.90;;;;;;4892040;29;20042;-64
2021/12/15 02:44:25;;;;;;;67.43;29.92;;;9.80;99.90;;;;;;4902991;29;20079;-64
2021/12/15 02:46:53;;;;;;;77.50;29.98;;;9.80;99.90;;;;;;4909663;29;20047;-65
2021/12/15 02:49:22;;;;;;;71.95;30.13;;;9.80;99.90;;;;;;4924240;29;20055;-64
2021/12/15 02:51:50;;;;;;;75.57;30.98;;;9.80;99.90;;;;;;4908248;29;20165;-65
2021/12/15 02:54:19;;;;;;;67.40;29.65;;;9.80;99.90;;;;;;4922064;29;20054;-65
2021/12/15 02:56:47;;;;;;;70.05;29.35;;;9.80;99.90;;;;;;4908721;29;20082;-64
2021/12/15 02:59:15;;;;;;;61.88;28.38;;;9.80;99.90;;;;;;4929961;29;20051;-64
2021/12/15 03:07:53;;;;;;;66.70;30.33;;;9.80;99.90;;;;;;4942865;28;20043;-64
2021/12/15 03:15:34;;;;;;;70.10;30.00;;;9.80;99.90;;;;;;4914858;28;20399;-64
2021/12/15 03:18:13;;;;;;;62.88;30.15;;;9.80;99.90;;;;;;4930216;29;20046;-65
2021/12/15 03:21:14;;;;;;;70.78;29.90;;;9.80;99.90;;;;;;4924044;28;20040;-64
2021/12/15 03:23:54;;;;;;;70.63;30.73;;;9.80;99.90;;;;;;4911642;29;20097;-64
2021/12/15 03:26:33;;;;;;;64.88;30.95;;;9.80;99.90;;;;;;4912045;29;20545;-65
2021/12/15 03:35:01;;;;;;;61.85;31.25;;;9.80;99.90;;;;;;4929053;29;20054;-64
2021/12/15 03:37:32;;;;;;;67.10;30.73;;;9.80;99.90;;;;;;4908318;28;20050;-64
2021/12/15 03:40:05;;;;;;;65.65;30.35;;;9.80;99.90;;;;;;4930781;28;20054;-64
2021/12/15 03:42:43;;;;;;;68.00;31.23;;;9.80;99.90;;;;;;4923229;28;20075;-64
2021/12/15 03:45:16;;;;;;;66.90;32.38;;;9.80;99.90;;;;;;4909910;29;20051;-65
2021/12/15 03:47:45;;;;;;;75.18;31.85;;;9.80;99.90;;;;;;4933025;29;20129;-65
2021/12/15 03:50:13;;;;;;;67.32;31.25;;;9.80;99.90;;;;;;4926809;29;20565;-65
2021/12/15 03:52:40;;;;;;;65.38;31.63;;;9.80;99.90;;;;;;4943493;28;20066;-64
2021/12/15 03:55:09;;;;;;;66.32;32.05;;;9.80;99.90;;;;;;4927856;29;20513;-65
2021/12/15 03:57:35;;;;;;;72.90;33.28;;;9.80;99.90;;;;;;4912252;29;20133;-64
2021/12/15 04:00:03;;;;;;;68.72;32.35;;;9.80;99.90;;;;;;4901330;29;20405;-65
2021/12/15 04:02:29;;;;;;;76.15;32.03;;;9.80;99.90;;;;;;4931845;29;20503;-65
2021/12/15 04:04:55;;;;;;;68.95;32.42;;;9.80;99.90;;;;;;4886116;28;20051;-64
2021/12/15 04:07:22;;;;;;;64.93;32.28;;;9.80;99.90;;;;;;4916883;29;20047;-64
2021/12/15 04:09:49;;;;;;;72.93;31.40;;;9.80;99.90;;;;;;4931334;29;20516;-64
2021/12/15 04:12:15;;;;;;;66.43;30.98;;;9.80;99.90;;;;;;4916207;29;20079;-64
2021/12/15 04:14:54;;;;;;;67.05;32.72;;;9.80;99.90;;;;;;4926441;29;20079;-65
2021/12/15 04:17:30;;;;;;;64.88;30.85;;;9.80;99.90;;;;;;4934797;29;20588;-64
2021/12/15 04:20:05;;;;;;;71.90;30.80;;;9.80;99.90;;;;;;4916741;28;20071;-64
2021/12/15 04:22:31;;;;;;;61.63;29.90;;;9.80;99.90;;;;;;4931658;28;20134;-65
2021/12/15 04:24:58;;;;;;;62.05;30.35;;;9.80;99.90;;;;;;4934026;28;20553;-65
2021/12/15 04:27:24;;;;;;;71.38;30.52;;;9.80;99.90;;;;;;4917003;28;20594;-65
2021/12/15 04:29:52;;;;;;;66.30;29.73;;;9.80;99.90;;;;;;4916872;28;20182;-64
2021/12/15 04:32:38;;;;;;;65.90;28.80;;;9.80;99.90;;;;;;4910430;28;20081;-64
2021/12/15 04:35:05;;;;;;;65.35;29.85;;;9.80;99.90;;;;;;4933343;28;20055;-64
2021/12/15 04:37:31;;;;;;;58.25;28.55;;;9.80;99.90;;;;;;4930468;28;20047;-65
2021/12/15 04:39:57;;;;;;;63.50;27.88;;;9.80;99.90;;;;;;4918092;28;20047;-64
2021/12/15 04:42:25;;;;;;;60.13;27.83;;;9.80;99.90;;;;;;4912294;28;20556;-64
2021/12/15 04:44:55;;;;;;;64.70;28.15;;;9.80;99.90;;;;;;4930046;28;20502;-65
2021/12/15 04:47:21;;;;;;;66.65;27.98;;;9.80;99.90;;;;;;4931587;28;20047;-64
2021/12/15 04:49:50;;;;;;;59.42;28.58;;;9.80;99.90;;;;;;4931067;28;20047;-63
2021/12/15 04:52:18;;;;;;;64.90;27.50;;;9.80;99.90;;;;;;4925252;28;20069;-64
2021/12/15 04:54:45;;;;;;;64.07;27.23;;;9.80;99.90;;;;;;4916289;28;20146;-64
2021/12/15 04:57:12;;;;;;;67.05;27.73;;;9.80;99.90;;;;;;4905625;28;20051;-64
2021/12/15 04:59:38;;;;;;;62.22;27.52;;;9.80;99.90;;;;;;4931030;28;20042;-64
2021/12/15 05:02:06;;;;;;;63.05;27.98;;;9.80;99.90;;;;;;4931672;28;20126;-65
2021/12/15 05:04:32;;;;;;;60.85;26.58;;;9.80;99.90;;;;;;4907904;28;20043;-64
2021/12/15 05:06:58;;;;;;;54.30;26.58;;;9.80;99.90;;;;;;4926575;28;20054;-64
2021/12/15 05:09:25;;;;;;;60.72;28.13;;;9.80;99.90;;;;;;4908781;28;20051;-64
2021/12/15 05:11:53;;;;;;;61.70;28.30;;;9.80;99.90;;;;;;4929978;28;20053;-65
2021/12/15 05:14:21;;;;;;;63.15;29.25;;;9.80;99.90;;;;;;4927076;28;20051;-64
2021/12/15 05:16:48;;;;;;;71.75;29.27;;;9.80;99.90;;;;;;4924335;28;20074;-65
2021/12/15 05:19:14;;;;;;;64.05;28.88;;;9.80;99.90;;;;;;4930650;28;20071;-65
2021/12/15 05:21:40;;;;;;;64.65;29.20;;;9.80;99.90;;;;;;4932651;28;20047;-64
2021/12/15 05:24:23;;;;;;;65.57;29.40;;;9.80;99.90;;;;;;4921949;28;20856;-64
2021/12/15 05:26:49;;;;;;;72.75;31.33;;;9.80;99.90;;;;;;4906510;28;20043;-64
2021/12/15 05:29:15;;;;;;;63.78;30.25;;;9.70;99.90;;;;;;4924071;28;20050;-65
2021/12/15 05:31:41;;;;;;;64.55;29.80;;;9.70;99.90;;;;;;4925075;28;20051;-65
2021/12/15 05:34:07;;;;;;;59.97;29.35;;;9.80;99.90;;;;;;4914160;28;20062;-64
2021/12/15 05:36:33;;;;;;;67.05;30.38;;;9.80;99.90;;;;;;4925916;28;20051;-64
2021/12/15 05:38:59;;;;;;;67.28;30.35;;;9.80;99.90;;;;;;4931562;28;20057;-64
2021/12/15 05:41:25;;;;;;;56.88;28.65;;;9.80;99.90;;;;;;4899533;28;20035;-65
2021/12/15 05:43:51;;;;;;;65.13;30.30;;;9.70;99.90;;;;;;4914237;28;20499;-65
2021/12/15 05:46:17;;;;;;;63.35;30.27;;;9.80;99.90;;;;;;4929578;28;20056;-64
2021/12/15 05:48:43;;;;;;;60.67;29.88;;;9.80;99.90;;;;;;4931223;28;20050;-64
2021/12/15 05:51:09;;;;;;;64.80;29.65;;;9.80;99.90;;;;;;4908642;28;20063;-64
2021/12/15 05:53:34;;;;;;;65.85;29.98;;;9.80;99.90;;;;;;4927183;28;20079;-65
2021/12/15 05:56:01;;;;;;;71.18;30.02;;;9.70;99.90;;;;;;4928114;28;20498;-64
2021/12/15 05:58:28;;;;;;;67.15;29.13;;;9.80;99.90;;;;;;4912802;29;20043;-64
2021/12/15 06:00:54;;;;;;;69.57;30.95;;;9.80;99.90;;;;;;4928863;29;20047;-64
2021/12/15 06:03:20;;;;;;;67.72;30.13;;;9.70;99.90;;;;;;4913633;29;20047;-64
2021/12/15 06:05:46;;;;;;;68.78;31.75;;;9.80;99.90;;;;;;4942722;28;20047;-64
2021/12/15 06:08:11;;;;;;;73.07;29.95;;;9.80;99.90;;;;;;4930686;29;20043;-64
2021/12/15 06:10:39;;;;;;;69.07;29.77;;;9.80;99.90;;;;;;4922116;29;20051;-65
2021/12/15 06:13:07;;;;;;;71.20;30.92;;;9.80;99.90;;;;;;4909661;29;20498;-64
2021/12/15 06:15:34;;;;;;;68.85;30.95;;;9.80;99.90;;;;;;4924873;29;20182;-65
2021/12/15 06:18:11;;;;;;;66.00;30.33;;;9.80;99.90;;;;;;4913759;29;20043;-64
2021/12/15 06:20:37;;;;;;;71.32;29.17;;;9.80;99.90;;;;;;4922309;28;20047;-64
2021/12/15 06:23:09;;;;;;;70.78;31.75;;;9.70;99.90;;;;;;4927679;29;20133;-64
2021/12/15 06:25:36;;;;;;;72.97;30.17;;;9.80;99.90;;;;;;4908791;29;20102;-64
2021/12/15 06:28:02;;;;;;;82.70;31.13;;;9.80;99.90;;;;;;4909664;29;20097;-65
2021/12/15 06:30:28;;;;;;;70.13;30.80;;;9.80;99.90;;;;;;4921642;28;20169;-64
2021/12/15 06:32:54;;;;;;;72.22;30.52;;;9.80;99.90;;;;;;4908112;29;20783;-64
2021/12/15 06:35:20;;;;;;;63.78;29.55;;;9.80;99.90;;;;;;4912323;29;20123;-64
2021/12/15 06:37:46;;;;;;;62.78;30.38;;;9.80;99.90;;;;;;4913973;29;20047;-64
2021/12/15 06:40:12;;;;;;;64.43;29.80;;;9.80;99.90;;;;;;4914803;29;20494;-65
2021/12/15 06:42:40;;;;;;;68.60;30.33;;;9.80;99.90;;;;;;4912674;29;20061;-64
2021/12/15 06:45:08;;;;;;;64.18;29.13;;;9.80;99.90;;;;;;4911477;29;20405;-65
2021/12/15 06:58:31;;;;;;;63.53;28.60;;;9.80;99.90;;;;;;4909040;28;20050;-64
2021/12/15 07:01:01;;;;;;;62.70;27.90;;;9.80;99.90;;;;;;4906578;28;20036;-64
2021/12/15 07:03:27;;;;;;;63.42;27.17;;;9.90;99.90;;;;;;4906556;28;20575;-64
2021/12/15 07:05:55;;;;;;;58.83;27.33;;;9.80;99.90;;;;;;4897970;29;20150;-65
2021/12/15 07:08:24;;;;;;;62.10;27.73;;;9.90;99.90;;;;;;4915623;28;20047;-64
2021/12/15 07:10:53;;;;;;;60.22;27.02;;;10.00;99.90;;;;;;4943697;28;20569;-65
2021/12/15 07:13:20;;;;;;;58.35;26.85;;;9.90;99.90;;;;;;4913673;28;20475;-64
2021/12/15 07:15:47;;;;;;;59.70;25.75;;;9.90;99.90;;;;;;4922840;28;20490;-64
2021/12/15 07:18:15;;;;;;;54.20;26.08;;;9.90;99.90;;;;;;4908763;28;20415;-64
2021/12/15 07:20:49;;;;;;;54.08;26.08;;;9.90;99.90;;;;;;4929479;28;20051;-64
2021/12/15 07:23:19;;;;;;;57.00;26.88;;;9.90;99.90;;;;;;4929448;28;20142;-64
2021/12/15 07:25:48;;;;;;;54.67;25.30;;;9.90;99.90;;;;;;4929454;28;20122;-65
2021/12/15 07:28:16;;;;;;;54.08;26.38;;;9.90;99.90;;;;;;4924882;28;20525;-65
2021/12/15 07:30:43;;;;;;;60.10;26.55;;;9.90;99.90;;;;;;4912866;28;20546;-64
2021/12/15 07:33:10;;;;;;;59.08;25.50;;;9.90;99.90;;;;;;4929540;28;20458;-65
2021/12/15 07:35:37;;;;;;;54.20;24.23;;;9.90;99.90;;;;;;4929081;28;20069;-64
2021/12/15 07:38:04;;;;;;;50.17;24.08;;;9.90;99.90;;;;;;4898377;28;20149;-65
2021/12/15 07:40:31;;;;;;;50.60;24.65;;;9.90;99.90;;;;;;4930256;28;20048;-64
2021/12/15 07:43:08;;;;;;;52.58;24.13;;;9.90;99.90;;;;;;4929511;28;20047;-64
2021/12/15 07:45:40;;;;;;;55.90;24.77;;;9.90;99.90;;;;;;4922931;28;20566;-65
2021/12/15 07:48:08;;;;;;;53.77;24.87;;;9.90;99.90;;;;;;4931497;28;20077;-64
2021/12/15 07:50:35;;;;;;;46.13;23.23;;;9.80;99.90;;;;;;4928977;28;20575;-64
2021/12/15 07:53:02;;;;;;;46.05;23.00;;;9.90;99.90;;;;;;4928782;28;20087;-65
2021/12/15 07:55:28;;;;;;;53.10;24.50;;;9.90;99.90;;;;;;4920096;28;20082;-64
2021/12/15 07:57:54;;;;;;;54.25;24.48;;;9.90;99.90;;;;;;4912502;28;20081;-64
2021/12/15 08:00:21;;;;;;;48.78;23.60;;;9.90;99.90;;;;;;4913408;28;20130;-64
2021/12/15 08:02:47;;;;;;;47.08;22.05;;;9.90;99.90;;;;;;4928652;28;20057;-64
2021/12/15 08:05:13;;;;;;;52.92;21.73;;;9.90;99.90;;;;;;4896172;28;20047;-65
2021/12/15 08:07:39;;;;;;;46.75;21.38;;;9.90;99.90;;;;;;4929221;28;20102;-64
2021/12/15 08:10:09;;;;;;;44.15;20.88;;;9.90;99.90;;;;;;4925272;28;20078;-65
2021/12/15 08:12:35;;;;;;;41.28;20.73;;;9.80;99.90;;;;;;4925110;28;20043;-64
2021/12/15 08:15:02;;;;;;;44.13;19.98;;;9.80;99.90;;;;;;4923078;28;20410;-64
2021/12/15 08:17:28;;;;;;;35.03;18.83;;;9.90;99.90;;;;;;4909014;28;20051;-65
2021/12/15 08:19:54;;;;;;;42.95;19.42;;;9.80;99.90;;;;;;4929838;28;20086;-64
2021/12/15 08:22:19;;;;;;;42.55;18.67;;;9.80;99.90;;;;;;4925861;28;20135;-65
2021/12/15 08:24:45;;;;;;;44.38;18.58;;;9.80;99.90;;;;;;4896987;29;20046;-65
2021/12/15 08:27:11;;;;;;;32.03;16.65;;;9.80;99.90;;;;;;4929966;29;20043;-65
2021/12/15 08:29:37;;;;;;;33.17;16.33;;;9.80;99.90;;;;;;4930284;29;20035;-65
2021/12/15 08:32:03;;;;;;;33.80;16.33;;;9.80;99.90;;;;;;4915596;28;20046;-64
2021/12/15 08:34:29;;;;;;;34.80;16.48;;;9.80;99.90;;;;;;4910826;29;20055;-64
2021/12/15 08:36:55;;;;;;;31.60;15.15;;;9.80;99.90;;;;;;4950315;28;20043;-64
2021/12/15 08:39:21;;;;;;;37.10;16.40;;;9.70;99.90;;;;;;4910346;29;20050;-64
2021/12/15 08:41:48;;;;;;;37.60;16.58;;;9.70;99.90;;;;;;4931844;29;20054;-65
2021/12/15 08:44:14;;;;;;;32.55;15.80;;;9.70;99.90;;;;;;4922200;29;20043;-64
2021/12/15 08:46:46;;;;;;;35.38;17.40;;;9.70;99.90;;;;;;4929934;29;20054;-64
2021/12/15 08:49:16;;;;;;;35.15;16.27;;;9.70;99.90;;;;;;4923988;29;20051;-64
2021/12/15 08:51:43;;;;;;;35.50;16.77;;;9.70;99.90;;;;;;4931896;29;20098;-65
2021/12/15 08:54:14;;;;;;;37.20;17.63;;;9.70;99.90;;;;;;4932032;29;20410;-65
2021/12/15 08:56:42;;;;;;;32.53;16.63;;;9.70;99.90;;;;;;4927084;29;20557;-64
2021/12/15 08:59:08;;;;;;;39.03;17.58;;;9.70;99.90;;;;;;4915989;29;20494;-65
2021/12/15 09:01:35;;;;;;;38.75;18.20;;;9.70;99.90;;;;;;4929836;29;20110;-64
2021/12/15 09:04:02;;;;;;;36.65;17.52;;;9.70;99.90;;;;;;4894816;29;20048;-65
2021/12/15 09:06:28;;;;;;;38.88;16.60;;;9.80;99.90;;;;;;4926943;29;20292;-64
2021/12/15 09:08:54;;;;;;;36.05;16.60;;;9.80;99.90;;;;;;4918553;29;20526;-64
2021/12/15 09:11:23;;;;;;;37.35;17.30;;;9.80;99.90;;;;;;4915215;29;20133;-64
2021/12/15 09:13:52;;;;;;;37.28;16.35;;;9.90;99.90;;;;;;4925603;29;21100;-64
2021/12/15 09:16:19;;;;;;;32.00;15.73;;;9.90;99.90;;;;;;4931948;29;20043;-64
2021/12/15 09:18:47;;;;;;;35.45;15.98;;;9.90;99.90;;;;;;4916996;29;20079;-65
2021/12/15 09:21:16;;;;;;;38.90;15.63;;;9.90;99.90;;;;;;4932114;29;20797;-64
2021/12/15 09:23:43;;;;;;;32.90;16.10;;;10.00;99.90;;;;;;4916382;29;20054;-64
2021/12/15 09:26:10;;;;;;;39.85;15.80;;;10.00;99.90;;;;;;4931165;29;20051;-64
2021/12/15 09:28:36;;;;;;;36.50;15.50;;;10.00;99.90;;;;;;4933478;29;20479;-65
2021/12/15 09:31:05;;;;;;;34.72;15.38;;;10.10;99.90;;;;;;4927884;29;20153;-64
2021/12/15 09:33:33;;;;;;;33.75;15.63;;;10.10;99.90;;;;;;4931887;29;20494;-64
2021/12/15 09:36:00;;;;;;;31.38;14.93;;;10.10;99.90;;;;;;4892776;29;20051;-64
2021/12/15 09:38:27;;;;;;;29.02;15.82;;;10.10;99.90;;;;;;4916417;29;20102;-65
2021/12/15 09:40:56;;;;;;;31.38;15.90;;;10.20;99.90;;;;;;4925175;29;20054;-65
2021/12/15 09:43:27;;;;;;;28.63;14.52;;;10.20;99.90;;;;;;4927458;29;20047;-65
2021/12/15 09:46:00;;;;;;;28.75;14.73;;;10.20;99.90;;;;;;4926827;28;20054;-65
2021/12/15 10:18:31;;;;;;;21.40;11.02;;;10.20;99.90;;;;;;4944695;28;20047;-65
2021/12/15 10:20:58;;;;;;;22.08;10.52;;;10.20;99.90;;;;;;4928410;28;20043;-64
2021/12/15 10:23:31;;;;;;;22.00;10.75;;;10.20;99.90;;;;;;4921610;28;20051;-64
2021/12/15 10:25:57;;;;;;;23.58;10.88;;;10.20;99.90;;;;;;4923865;28;20118;-64
2021/12/15 10:28:26;;;;;;;21.27;10.18;;;10.20;99.90;;;;;;4929924;28;20042;-64
2021/12/15 10:31:06;;;;;;;21.73;10.38;;;10.20;99.90;;;;;;4930460;28;20075;-64
2021/12/15 10:33:43;;;;;;;20.55;10.40;;;10.20;99.90;;;;;;4921893;29;20130;-65
2021/12/15 10:36:15;;;;;;;22.40;11.38;;;10.20;99.90;;;;;;4899332;29;20126;-64
2021/12/15 10:38:59;;;;;;;23.88;10.77;;;10.20;99.90;;;;;;4931525;29;20410;-64
2021/12/15 10:41:41;;;;;;;28.27;11.60;;;10.20;99.90;;;;;;4927407;28;20494;-65
2021/12/15 10:44:09;;;;;;;25.02;11.75;;;10.20;99.90;;;;;;4924501;29;20052;-65
2021/12/15 10:46:50;;;;;;;25.08;11.00;;;10.30;99.90;;;;;;4930932;29;20618;-64
2021/12/15 10:49:32;;;;;;;26.33;10.75;;;10.30;99.90;;;;;;4908966;29;20627;-64
2021/12/15 10:52:00;;;;;;;21.85;10.52;;;10.30;99.90;;;;;;4927509;28;20047;-66
2021/12/15 10:54:46;;;;;;;21.38;10.35;;;10.30;99.90;;;;;;4923877;28;20050;-65
2021/12/15 10:57:31;;;;;;;20.13;10.88;;;10.30;99.90;;;;;;4928861;28;20078;-64
2021/12/15 10:59:57;;;;;;;21.48;10.02;;;10.30;99.90;;;;;;4930770;29;20431;-64
2021/12/15 11:02:28;;;;;;;21.45;10.75;;;10.30;99.90;;;;;;4924516;29;20051;-65
2021/12/15 11:05:12;;;;;;;17.40;10.77;;;10.30;99.90;;;;;;4930236;29;20058;-65
2021/12/15 11:07:49;;;;;;;18.80;10.18;;;10.40;99.90;;;;;;4932141;28;20181;-64
2021/12/15 11:10:17;;;;;;;22.15;10.02;;;10.40;99.90;;;;;;4930268;28;20050;-65
2021/12/15 11:12:42;;;;;;;22.58;9.70;;;10.40;99.90;;;;;;4913722;28;20093;-64
2021/12/15 11:15:23;;;;;;;18.90;10.00;;;10.40;99.90;;;;;;4920354;28;20510;-65
2021/12/15 11:17:50;;;;;;;24.63;9.73;;;10.50;99.90;;;;;;4914500;29;20134;-65
2021/12/15 11:20:27;;;;;;;18.60;8.75;;;10.50;99.90;;;;;;4924196;29;20974;-64
2021/12/15 11:23:00;;;;;;;17.77;8.88;;;10.50;99.90;;;;;;4914468;29;20150;-65
2021/12/15 11:25:46;;;;;;;18.73;9.40;;;10.50;99.90;;;;;;4929675;29;20837;-65
2021/12/15 11:28:15;;;;;;;15.73;8.15;;;10.50;99.90;;;;;;4929248;28;20486;-65
2021/12/15 11:31:01;;;;;;;17.38;8.40;;;10.50;99.90;;;;;;4914733;28;20486;-65
2021/12/15 11:33:53;;;;;;;17.10;7.72;;;10.50;99.90;;;;;;4911854;29;20057;-65
2021/12/15 11:36:27;;;;;;;16.60;7.63;;;10.50;99.90;;;;;;4915631;28;20569;-65
2021/12/15 11:39:05;;;;;;;15.57;7.70;;;10.50;99.90;;;;;;4924044;28;20047;-65
2021/12/15 11:41:32;;;;;;;14.48;7.60;;;10.50;99.90;;;;;;4925090;28;20039;-65
2021/12/15 11:44:02;;;;;;;16.92;7.18;;;10.50;99.90;;;;;;4929494;28;20048;-65
2021/12/15 11:46:41;;;;;;;13.60;6.85;;;10.50;99.90;;;;;;4922875;28;20051;-65
2021/12/15 11:49:13;;;;;;;22.50;7.50;;;10.50;99.90;;;;;;4929189;29;20048;-65
2021/12/15 11:51:47;;;;;;;11.80;6.38;;;10.50;99.90;;;;;;4912926;29;20051;-65
2021/12/15 11:54:18;;;;;;;15.93;7.00;;;10.50;99.90;;;;;;4910553;29;20047;-65
2021/12/15 11:56:46;;;;;;;13.38;6.15;;;10.50;99.90;;;;;;4928928;29;20430;-65
2021/12/15 11:59:38;;;;;;;16.95;6.00;;;10.50;99.90;;;;;;4912449;29;20047;-64
2021/12/15 12:02:24;;;;;;;11.02;5.55;;;10.50;99.90;;;;;;4926542;28;20557;-65
2021/12/15 12:04:53;;;;;;;15.80;5.80;;;10.50;99.90;;;;;;4908597;29;20059;-65
2021/12/15 12:07:33;;;;;;;13.82;5.97;;;10.60;99.90;;;;;;4926965;29;20047;-65
2021/12/15 12:10:01;;;;;;;9.95;5.32;;;10.60;99.90;;;;;;4934139;29;20086;-64
2021/12/15 12:12:38;;;;;;;11.32;5.25;;;10.60;99.90;;;;;;4906688;29;20051;-65
2021/12/15 12:15:08;;;;;;;14.25;5.55;;;10.60;99.90;;;;;;4932542;29;20467;-65
2021/12/15 12:17:38;;;;;;;11.65;4.90;;;10.50;99.90;;;;;;4931108;29;20043;-65
2021/12/15 12:20:21;;;;;;;15.60;5.20;;;10.60;99.90;;;;;;4901506;28;20240;-65
2021/12/15 12:22:49;;;;;;;12.93;5.50;;;10.50;99.90;;;;;;4933473;28;20051;-65
2021/12/15 12:25:28;;;;;;;14.20;4.80;;;10.50;99.90;;;;;;4916120;28;20502;-65
2021/12/15 12:27:56;;;;;;;9.52;4.88;;;10.50;99.90;;;;;;4933834;28;20043;-65
2021/12/15 12:30:26;;;;;;;10.57;4.97;;;10.50;99.90;;;;;;4911971;28;20045;-65
2021/12/15 12:32:54;;;;;;;10.88;4.28;;;10.40;99.90;;;;;;4931090;28;20075;-65
2021/12/15 12:35:30;;;;;;;13.32;4.20;;;10.40;99.90;;;;;;4916094;28;20506;-65
2021/12/15 12:37:59;;;;;;;8.98;4.18;;;10.40;99.90;;;;;;4933174;29;20065;-66
2021/12/15 12:40:29;;;;;;;12.15;3.65;;;10.40;99.90;;;;;;4900638;29;20109;-65
2021/12/15 12:42:55;;;;;;;12.43;3.97;;;10.40;99.90;;;;;;4927206;28;20047;-65
2021/12/15 12:45:58;;;;;;;11.50;3.85;;;10.40;99.90;;;;;;4911661;29;20053;-65
2021/12/15 12:48:52;;;;;;;10.93;3.80;;;10.40;99.90;;;;;;4920566;28;20047;-65
2021/12/15 13:00:34;;;;;;;6.05;2.72;;;10.10;99.90;;;;;;4933369;28;20039;-66
2021/12/15 13:03:11;;;;;;;9.07;3.00;;;10.10;99.90;;;;;;4926756;29;20812;-65
2021/12/15 13:05:38;;;;;;;6.43;2.88;;;10.00;99.90;;;;;;4926590;28;20043;-66
2021/12/15 13:08:07;;;;;;;9.57;2.78;;;10.00;99.90;;;;;;4933313;28;20039;-66
2021/12/15 13:11:05;;;;;;;12.80;2.70;;;10.00;99.90;;;;;;4934079;28;20109;-65
2021/12/15 13:13:50;;;;;;;6.25;2.33;;;10.00;99.90;;;;;;4913660;29;20078;-65
2021/12/15 13:16:30;;;;;;;5.72;2.40;;;10.00;99.90;;;;;;4926152;28;20542;-66
2021/12/15 13:19:13;;;;;;;6.55;2.60;;;10.00;99.90;;;;;;4921287;28;20047;-65
2021/12/15 13:21:51;;;;;;;5.95;2.58;;;10.00;99.90;;;;;;4931398;29;20088;-66
2021/12/15 13:30:46;;;;;;;4.68;2.22;;;10.00;99.90;;;;;;4931088;28;20043;-65
2021/12/15 13:33:17;;;;;;;5.78;2.50;;;10.00;99.90;;;;;;4908741;28;20118;-65
2021/12/15 13:35:52;;;;;;;8.50;2.65;;;10.00;99.90;;;;;;4914395;29;20051;-65
2021/12/15 13:38:55;;;;;;;9.75;2.40;;;10.00;99.90;;;;;;4925906;29;20055;-65
2021/12/15 13:41:39;;;;;;;8.27;2.38;;;10.00;99.90;;;;;;4908764;28;20097;-65
2021/12/15 13:44:30;;;;;;;7.72;2.22;;;10.00;99.90;;;;;;4926480;29;20824;-65
2021/12/15 13:47:14;;;;;;;4.40;2.00;;;10.00;99.90;;;;;;4929322;28;20478;-65
2021/12/15 13:49:59;;;;;;;5.18;2.05;;;9.90;99.90;;;;;;4901951;28;20502;-65
2021/12/15 13:52:39;;;;;;;4.13;2.33;;;9.90;99.90;;;;;;4925165;29;20142;-65
2021/12/15 13:55:26;;;;;;;6.32;2.22;;;9.80;99.90;;;;;;4900176;29;20043;-65
2021/12/15 13:58:10;;;;;;;4.40;1.88;;;9.80;99.90;;;;;;4929477;28;20058;-65
2021/12/15 14:01:05;;;;;;;7.10;2.22;;;9.80;99.90;;;;;;4928599;29;20039;-65
2021/12/15 14:03:43;;;;;;;9.90;2.25;;;9.70;99.90;;;;;;4929356;28;20055;-65
2021/12/15 14:06:13;;;;;;;6.88;2.13;;;9.70;99.90;;;;;;4929612;28;20146;-65
2021/12/15 14:08:46;;;;;;;6.55;1.95;;;9.70;99.90;;;;;;4924516;28;20074;-66
2021/12/15 14:11:21;;;;;;;6.22;1.90;;;9.60;99.90;;;;;;4925278;28;20495;-65
2021/12/15 14:13:53;;;;;;;6.30;2.20;;;9.60;99.90;;;;;;4928551;28;20398;-66
2021/12/15 14:16:44;;;;;;;7.75;2.45;;;9.60;99.90;;;;;;4925426;29;20117;-65
2021/12/15 14:19:17;;;;;;;7.18;2.13;;;9.50;99.90;;;;;;4921900;28;20494;-65
2021/12/15 14:21:47;;;;;;;4.65;1.90;;;9.50;99.90;;;;;;4929546;28;20430;-65
2021/12/15 14:24:14;;;;;;;4.38;2.17;;;9.40;99.90;;;;;;4925473;28;20388;-65